Stony Brook, Massachusetts
Current Conditions -  °F | °C
As of 6:56 PM on Thursday 27 Nov 2014 (Local Time) from KBED Reporting Station
Overcast Overcast  
Wind Chill: 32°   Ceiling: 2100
Heat Index: 32°   Visibility: 10mi
Dew Point: 26°   Wind: 3mph
Humidity: 79%   Direction: 360°N
Pressure: 29.99"   Gusts: NA
Location:  42.359°N, 71.3°W
Report Text: KBED 272356Z 36003KT 10SM OVC021 00/M03 A2999 RMK AO2 SLP171 T00001033 10017 20000 53010
Loading
Personal Weather Stations






























Interactive Weather Map New forecast layout! Learn more

10-Day Weather Forecast

Advertisements
Track Severe Weather on mobile